Tiempo atmosférico en la estación meteorológica de Andújar, Jaén (193 m.)



Fecha
DESCASC
Temp. máxima en grados centígrados (hora)
DESCASC
Temp. mínima en grados centígrados (hora)
DESCASC
Temp. media en grados centígrados
DESCASC
Racha de viento máxima en m/sg (hora)
DESCASC
Velocidad máxima media en intervalos de 10 minutos(hora)
DESCASC
Precipitaciones diarias en mm
DESCASC
Precipitaciones de 00:00 a 06:00 en mm
DESCASC
Precipitaciones de 06:00 a 12:00 en mm
DESCASC
Precipitaciones de 12:00 a 18:00 en mm
DESCASC
Precipitaciones de 18:00 a 24:00 en mm
DESCASC
20-09-2018 36.1 (16:00) 17.3 (08:00) 26.7 9.17 (17:10) 3.33 (19:40) 0 0 0 0 0
19-09-2018 36.3 (16:10) 17 (08:10) 26.6 5.28 (21:50) 2.78 (21:10) 0 0 0 0 0
18-09-2018 33.8 (16:10) 16.7 (08:10) 25.3 6.39 (13:50) 4.17 (17:40) 0 0 0 0 0
17-09-2018 33.8 (16:30) 17.7 (06:00) 25.8 7.5 (20:10) 4.17 (20:50) 0 0 0 0 0
16-09-2018 34.2 (17:40) 16.2 (00:00) 25.2 6.11 (10:40) 3.06 (10:50) 0 0 0 0 0
15-09-2018 32.6 (15:10) 16.2 (00:00) 24.4 8.33 (16:10) 3.89 (16:00) 0 0 0 0 0
14-09-2018 -- (--) -- (--) -- -- (--) -- (--) -- -- -- 0 0.1
13-09-2018 -- (--) -- (--) -- -- (--) -- (--) -- -- -- 0 0
12-09-2018 -- (--) -- (--) -- -- (--) -- (--) -- -- -- -- --
11-09-2018 -- (--) -- (--) -- -- (--) -- (--) -- -- -- -- --
10-09-2018 -- (--) -- (--) -- -- (--) -- (--) -- -- -- -- --
09-09-2018 -- (--) -- (--) -- -- (--) -- (--) -- -- -- -- --
08-09-2018 -- (--) -- (--) -- -- (--) -- (--) -- -- -- -- --
07-09-2018 -- (--) -- (--) -- -- (--) -- (--) -- -- -- -- --
06-09-2018 -- (--) -- (--) -- -- (--) -- (--) -- -- -- -- --
05-09-2018 -- (--) -- (--) -- -- (--) -- (--) -- -- -- -- --
04-09-2018 -- (--) -- (--) -- -- (--) -- (--) -- -- -- -- --
03-09-2018 -- (--) -- (--) -- -- (--) -- (--) -- -- -- -- --
02-09-2018 -- (--) -- (--) -- -- (--) -- (--) -- -- -- -- --
01-09-2018 -- (--) -- (--) -- -- (--) -- (--) -- -- -- -- --
31-08-2018 -- (--) -- (--) -- -- (--) -- (--) -- -- -- -- --
30-08-2018 36.4 (17:10) 18.1 (00:00) 27.3 5.28 (17:20) 3.06 (16:30) 0 0 0 0 0
29-08-2018 37 (15:50) 18.7 (00:00) 27.9 8.06 (01:10) 5 (00:40) 0 0 0 0 0
28-08-2018 38.4 (14:50) 20.7 (00:00) 29.6 8.61 (17:00) 5.28 (02:20) 0 0 0 0 0
27-08-2018 41.1 (17:00) 16.5 (00:00) 28.8 7.22 (19:30) 3.61 (19:30) 0 0 0 0 0
26-08-2018 39.5 (17:00) 17.2 (00:00) 28.4 7.22 (16:40) 4.44 (16:40) 0 0 0 0 0
25-08-2018 38.8 (17:00) 18.5 (00:00) 28.6 6.94 (16:20) 4.17 (18:30) 0 0 0 0 0

Gráficas

Temp. máximas Temp. mínimas Temp. medias Precipitaciones Rachas de viento máximas Velocidades máximas media en intervalos de 10 minutos

Datos horarios

Fecha y hora oficial Temperatura (ºC) Velocidad del viento (km/h) Dirección del viento Racha (km/h) Dirección de racha Precipitación (mm) Presión (hPa) Tendencia (hPa) Humedad (%)
2018-09-23 23:00:00 24.3 0 Calma 8 Este 0 995.1 1.4 39
2018-09-23 22:00:00 25.4 0 Calma 5 Sudoeste 0 994.5 0.8 37
2018-09-23 21:00:00 27.3 2 Oeste 9 Noroeste 0 994.1 0.1 36
2018-09-23 20:00:00 31.4 4 Sudeste 14 Sudeste 0 993.7 -0.6 27
2018-09-23 19:00:00 35.2 7 Sudeste 20 Sudeste 0 993.7 -1.1 24
2018-09-23 18:00:00 37.3 8 Sudeste 22 Este 0 994 -1.7 23
2018-09-23 17:00:00 37.4 7 Sudeste 25 Este 0 994.3 -2.6 23
2018-09-23 16:00:00 36.3 8 Este 21 Este 0 994.8 -2.7 24
2018-09-23 15:00:00 35.1 10 Este 23 Este 0 995.7 -2.3 26
2018-09-23 14:00:00 35.5 6 Este 18 Este 0 996.9 -1.5 28
2018-09-23 13:00:00 31.8 6 Este 18 Este 0 997.5 -0.8 34
2018-09-23 12:00:00 29.5 8 Este 18 Este 0 998 0.5 39
2018-09-23 11:00:00 26.5 11 Este 19 Sudeste 0 998.4 1.1 44
2018-09-23 10:00:00 23.6 4 Este 11 Este 0 998.3 1.2 55
2018-09-23 09:00:00 18.3 0 Calma 3 Sudeste 0 997.5 0.6 68
2018-09-23 08:00:00 16.4 0 Calma 4 Este 0 997.3 0.5 72
2018-09-23 07:00:00 17.1 2 Sudeste 6 Este 0 997.1 0.2 68
2018-09-23 06:00:00 17.9 3 Este 4 Sudeste 0 996.9 -0.3 64
2018-09-23 05:00:00 19 2 Este 3 Este 0 996.8 -0.3 60
2018-09-23 04:00:00 19.6 0 Calma 3 Oeste 0 996.9 -0.2 57
2018-09-23 03:00:00 20.6 0 Calma 5 Norte 0 997.2 0.2 54
2018-09-23 02:00:00 23 3 Norte 8 Noroeste 0 997.1 0.8 49
2018-09-23 01:00:00 22.8 0 Calma 5 Sudoeste 0 997.1 1.6 46
2018-09-23 00:00:00 24 2 Noroeste 16 Sudoeste 0 997 2.1 42
2018-09-22 23:00:00 22.8 2 Noroeste 15 Oeste 0 996.3 1.8 42
2018-09-22 22:00:00 25.6 0 Calma 7 Oeste 0 995.5 1.1 37
2018-09-22 21:00:00 26.9 5 Oeste 7 Oeste 0 994.9 0.4 32
2018-09-22 20:00:00 32.1 0 Calma 9 Sudeste 0 994.5 -0.4 26
2018-09-22 19:00:00 35.7 4 Este 18 Sudeste 0 994.4 -1 23
2018-09-22 18:00:00 36.8 6 Este 20 Sudeste 0 994.5 -1.6 22
2018-09-22 17:00:00 37.6 4 Nordeste 20 Este 0 994.9 -1.8 22
2018-09-22 16:00:00 36.3 5 Sudeste 19 Este 0 995.4 -1.9 23
2018-09-22 15:00:00 37 4 Este 15 Nordeste 0 996.1 -1.5 26
2018-09-22 14:00:00 35 6 Este 14 Este 0 996.7 -1 29
2018-09-22 13:00:00 32.2 6 Este 18 Este 0 997.3 -0.3 33
2018-09-22 12:00:00 29.1 9 Este 19 Este 0 997.6 0.6 41
2018-09-22 11:00:00 26.5 12 Este 19 Este 0 997.7 1.3 48
2018-09-22 10:00:00 23.9 3 Sudeste 9 Sudeste 0 997.6 1.6 57
2018-09-22 09:00:00 19 2 Sudeste 3 Sudeste 0 997 1.6 68
2018-09-22 08:00:00 16.8 0 Calma 4 Sudeste 0 996.4 1.4 73
2018-09-22 07:00:00 17 0 Calma 3 Sudeste 0 996 1 72
2018-09-22 06:00:00 17.6 0 Calma 5 Este 0 995.4 0.3 66
2018-09-22 05:00:00 18.9 0 Calma 5 Este 0 995 -0.2 64
2018-09-22 04:00:00 19.7 3 Este 4 Sudoeste 0 995 0.1 59
2018-09-22 03:00:00 20.1 3 Oeste 4 Oeste 0 995.1 0.9 57
2018-09-22 02:00:00 21.4 0 Calma 4 Sudeste 0 995.2 1.4 52
2018-09-22 01:00:00 23 2 Sudeste 5 Sudeste 0 994.9 1.6 47
2018-09-22 00:00:00 22.7 0 Calma 3 Noroeste 0 994.2 1.7 47
2018-09-21 23:00:00 23.6 0 Calma 2 Oeste 0 993.8 1.8 44
2018-09-21 22:00:00 25.2 0 Calma 4 Oeste 0 993.3 1.5 41
2018-09-21 21:00:00 27.3 0 Calma 6 Oeste 0 992.5 0.7 35
2018-09-21 20:00:00 29.8 4 Oeste 8 Noroeste 0 992 0 29
2018-09-21 19:00:00 33.5 6 Noroeste 11 Noroeste 0 991.8 -0.8 24
2018-09-21 18:00:00 35.1 2 Nordeste 12 Este 0 991.8 -1.4 23
2018-09-21 17:00:00 35.3 4 Nordeste 11 Este 0 992 -2.2 25
2018-09-21 16:00:00 34.6 4 Este 12 Sudoeste 0 992.6 -2.5 28
2018-09-21 15:00:00 33.2 0 Calma 12 Sur 0 993.2 -2.3 32
2018-09-21 14:00:00 32.1 0 Calma 10 Este 0 994.2 -1.1 35
2018-09-21 13:00:00 29.8 0 Calma 12 Este 0 995.1 0.1 42
2018-09-21 12:00:00 28.3 2 Nordeste 12 Este 0 995.5 0.7 48
2018-09-21 11:00:00 26.2 4 Este 10 Sudeste 0 995.3 1.1 56
2018-09-21 10:00:00 23.2 3 Este 8 Sudeste 0 995 1.2 65
2018-09-21 09:00:00 19.7 0 Calma 4 Sudeste 0 994.8 1.2 79
2018-09-21 08:00:00 17.8 0 Calma 6 Este 0 994.2 0.7 80
2018-09-21 07:00:00 18.5 0 Calma 4 Este 0 993.8 0.5 77
2018-09-21 06:00:00 19.3 0 Calma 4 Noroeste 0 993.6 0 76
2018-09-21 05:00:00 19.5 0 Calma 4 Oeste 0 993.5 0.2 76
2018-09-21 04:00:00 20.1 3 Noroeste 6 Noroeste 0 993.3 -0.2 69
2018-09-21 03:00:00 21 4 Noroeste 8 Oeste 0 993.6 0.5 63
2018-09-21 02:00:00 22.6 5 Oeste 9 Oeste 0 993.3 0.6 58
2018-09-21 01:00:00 23.1 4 Oeste 11 Oeste 0 993.5 1.2 55
2018-09-21 00:00:00 23.3 5 Oeste 13 Sudoeste 0 993.1 1.1 52
2018-09-20 23:00:00 26.8 8 Sudoeste 12 Sudoeste 0 992.7 1.2 42
2018-09-20 22:00:00 27.1 6 Sudoeste 9 Oeste 0 992.3 0.8 42
2018-09-20 21:00:00 28 5 Noroeste 13 Oeste 0 992 0.4 39
2018-09-20 20:00:00 29.8 10 Oeste 21 Oeste 0 991.5 -0.5 34
2018-09-20 19:00:00 32.1 8 Noroeste 23 Noroeste 0 991.5 -1.1 30
2018-09-20 18:00:00 34 8 Oeste 33 Oeste 0 991.6 -1.7 28
2018-09-20 17:00:00 34.5 6 Oeste 19 Oeste 0 992 -2.4 27
2018-09-20 16:00:00 35.3 5 Oeste 14 Este 0 992.6 -2.6 28
2018-09-20 15:00:00 33.3 4 Este 13 Este 0 993.3 -2.5 32
2018-09-20 14:00:00 31.8 3 Sudeste 14 Nordeste 0 994.4 -1.7 35
2018-09-20 13:00:00 30.5 2 Nordeste 13 Este 0 995.2 -0.9 41
2018-09-20 12:00:00 28.2 7 Este 13 Este 0 995.8 0 46
2018-09-20 11:00:00 25.9 6 Este 14 Este 0 996.1 0.7 54
2018-09-20 10:00:00 22.4 7 Este 13 Este 0 996.1 0.8 63
2018-09-20 09:00:00 19 4 Este 6 Este 0 995.8 0.7 73
2018-09-20 08:00:00 17.5 0 Calma -- -- 0 995.4 0.4 77
2018-09-20 07:00:00 17.8 0 Calma 5 Sudeste 0 995.3 0.2 74
2018-09-20 06:00:00 18.5 2 Este 5 Este 0 995.1 -0.1 72
2018-09-20 05:00:00 18.8 0 Calma 2 Este 0 995 -0.3 70
2018-09-20 04:00:00 19.5 0 Calma 3 Este 0 995.1 -0.2 67
2018-09-20 03:00:00 20.3 0 Calma 4 Oeste 0 995.2 -0.1 65
2018-09-20 02:00:00 20.6 4 Oeste 5 Oeste 0 995.3 0.5 63
2018-09-20 01:00:00 23.2 3 Sudeste 6 Este 0 995.3 1.1 54
2018-09-20 00:00:00 23.6 2 Sudeste 8 Este 0 995.3 1.7 51
2018-09-19 23:00:00 24.5 2 Sur 15 Sudoeste 0 994.8 1.8 48
2018-09-19 22:00:00 28.5 9 Sur 19 Sur 0 994.2 1.4 37
2018-09-19 21:00:00 29.5 8 Sur 15 Sudeste 0 993.6 1.1 34
2018-09-19 20:00:00 30.6 2 Este 10 Este 0 993 0.1 29
2018-09-19 19:00:00 33.3 5 Sudeste 9 Este 0 992.8 -0.5 25
2018-09-19 18:00:00 35 3 Sudeste 11 Sudeste 0 992.5 -1.5 22
2018-09-19 17:00:00 33.4 0 Calma 13 Este 0 992.9 -1.9 23
2018-09-19 16:00:00 34.2 0 Calma 14 Este 0 993.3 -2.3 25
2018-09-19 15:00:00 33.5 5 Este 13 Este 0 994 -2 28
2018-09-19 14:00:00 31.1 4 Norte 13 Este 0 994.8 -0.9 34
2018-09-19 13:00:00 29.3 7 Este 16 Este 0 995.6 0.3 40
2018-09-19 12:00:00 27.9 4 Este 14 Nordeste 0 996 1 45
2018-09-19 11:00:00 25.5 6 Este 15 Este 0 995.7 1.3 55
2018-09-19 10:00:00 23.2 5 Este 10 Este 0 995.3 1.4 66
2018-09-19 09:00:00 18.5 0 Calma 6 Este 0 995 1.2 83
2018-09-19 08:00:00 17.1 0 Calma 4 Sudeste 0 994.4 0.9 87
2018-09-19 07:00:00 17.8 0 Calma 6 Oeste 0 993.9 0.4 88
2018-09-19 06:00:00 17.7 2 Oeste 6 Oeste 0 993.8 0.3 86
2018-09-19 05:00:00 18 0 Calma 5 Sur 0 993.5 0.1 83
2018-09-19 04:00:00 19 0 Calma -- -- 0 993.5 0.1 76
2018-09-19 03:00:00 19.5 0 Calma 5 Este 0 993.5 0.5 73
2018-09-19 02:00:00 19.9 0 Calma 6 Este 0 993.4 0.8 71
2018-09-19 01:00:00 20.7 0 Calma 6 Este 0 993.4 1.1 67
2018-09-19 00:00:00 22.1 2 Oeste 7 Norte 0 993 1.4 63
2018-09-18 23:00:00 22.7 3 Sudoeste 9 Sudoeste 0 992.6 1.7 57
2018-09-18 22:00:00 24.1 0 Calma 8 Oeste 0 992.3 2 52
2018-09-18 21:00:00 24.8 5 Oeste 8 Noroeste 0 991.6 1.6 51
2018-09-18 20:00:00 27 7 Oeste 17 Noroeste 0 990.9 0.8 47
2018-09-18 19:00:00 29.3 9 Noroeste 18 Noroeste 0 990.3 0.1 41
2018-09-18 18:00:00 30.9 14 Noroeste 23 Oeste 0 990 -0.9 38
2018-09-18 17:00:00 33 12 Noroeste 22 Oeste 0 990.1 -1.6 32
2018-09-18 16:00:00 33 6 Oeste 18 Oeste 0 990.2 -2 33
2018-09-18 15:00:00 31.2 9 Oeste 19 Sudoeste 0 990.9 -1.9 37
2018-09-18 14:00:00 30.7 5 Oeste 23 Sudoeste 0 991.7 -1 41
2018-09-18 13:00:00 29.6 6 Oeste 13 Oeste 0 992.2 -0.1 44
2018-09-18 12:00:00 27.4 3 Nordeste 12 Este 0 992.8 0.8 50
2018-09-18 11:00:00 25.3 4 Este 12 Sudeste 0 992.7 1.1 58
2018-09-18 10:00:00 22.3 6 Este 12 Este 0 992.3 1 70
2018-09-18 09:00:00 19 0 Calma 4 Sudeste 0 992 1 83
2018-09-18 08:00:00 17.3 0 Calma 4 Este 0 991.6 0.7 92
2018-09-18 07:00:00 17.8 0 Calma 5 Oeste 0 991.3 0.5 90
2018-09-18 06:00:00 18 0 Calma 4 Este 0 991 -0.1 86
2018-09-18 05:00:00 18.7 3 Este 5 Este 0 990.9 -0.1 86
2018-09-18 04:00:00 19.2 2 Sudeste 4 Sudeste 0 990.8 -0.5 82
2018-09-18 03:00:00 20.2 0 Calma 4 Sur 0 991.1 -0.4 79
2018-09-18 02:00:00 21.1 2 Sudeste 8 Este 0 991 -0.3 73
2018-09-18 01:00:00 21.9 2 Este 10 Este 0 991.3 -0.1 67
2018-09-18 00:00:00 21.5 0 Calma 8 Oeste 0 991.5 1.3 67
2018-09-17 23:00:00 22.5 3 Este 14 Sudeste 0 991.3 1.3 63
2018-09-17 22:00:00 22.5 9 Este 22 Sudeste 0 991.4 2.2 65
2018-09-17 21:00:00 22.9 11 Sudeste 27 Este 0 990.2 1.7 65
2018-09-17 20:00:00 26.1 8 Este 24 Este 0 990 1 43
2018-09-17 19:00:00 28.1 10 Este 25 Este 0 989.2 -0.7 41
2018-09-17 18:00:00 31.7 11 Oeste 22 Noroeste 0 988.5 -2.3 34
2018-09-17 17:00:00 32.4 7 Oeste 23 Oeste 0 989 -2.9 33
2018-09-17 16:00:00 30.9 7 Noroeste 24 Sudoeste 0 989.9 -2.9 34
2018-09-17 15:00:00 30.6 6 Norte 13 Norte 0 990.8 -2.2 37
2018-09-17 14:00:00 31.4 0 Calma 15 Este 0 991.9 -1.3 37
2018-09-17 13:00:00 28.8 2 Norte 14 Este 0 992.8 -0.3 41
2018-09-17 12:00:00 28.1 3 Sudeste 9 Sudeste 0 993 -0.1 45
2018-09-17 11:00:00 26.2 3 Nordeste 10 Sudeste 0 993.2 -0.1 51
2018-09-17 10:00:00 23.7 4 Este 10 Este 0 993.1 0.2 60
2018-09-17 09:00:00 20.2 0 Calma 5 Sur 0 993.1 0 77
2018-09-17 08:00:00 18.4 0 Calma 7 Sudoeste 0 993.3 0.1 80
2018-09-17 07:00:00 18.3 0 Calma 6 Noroeste 0 992.9 -0.1 83
2018-09-17 06:00:00 17.8 5 Oeste 8 Oeste 0 993.1 -0.3 86
2018-09-17 05:00:00 19.3 0 Calma 4 Sur 0 993.2 -0.2 78
2018-09-17 04:00:00 19.2 4 Oeste 8 Oeste 0 993 -0.2 80
2018-09-17 03:00:00 21.2 0 Calma 7 Oeste 0 993.4 0.3 72
2018-09-17 02:00:00 20.8 5 Noroeste 7 Oeste 0 993.4 0.7 66
2018-09-17 01:00:00 19.9 3 Noroeste 9 Oeste 0 993.2 0.6 66
2018-09-17 00:00:00 20.6 0 Calma 11 Este 0 993.1 0.7 56
2018-09-16 23:00:00 22.4 0 Calma 7 Oeste 0 992.7 0.8 49
2018-09-16 22:00:00 22.8 6 Oeste 8 Oeste 0 992.6 0.8 46
2018-09-16 21:00:00 26.3 3 Sudeste 5 Sudoeste 0 992.4 0.6 36
2018-09-16 20:00:00 29.8 0 Calma 8 Sudoeste 0 991.9 -0.5 31
2018-09-16 19:00:00 32.1 2 Este 18 Este 0 991.8 -1.3 27
2018-09-16 18:00:00 34 6 Sudeste 17 Sudeste 0 991.8 -2.1 24
2018-09-16 17:00:00 33.5 3 Este 18 Sudeste 0 992.4 -2.7 26
2018-09-16 16:00:00 33.1 6 Nordeste 20 Este 0 993.1 -2.7 29
2018-09-16 15:00:00 31.7 7 Sudeste 21 Este 0 993.9 -2.5 31
2018-09-16 14:00:00 30.3 3 Este 17 Este 0 995.1 -1.8 35
2018-09-16 13:00:00 28.3 6 Este 16 Este 0 995.8 -0.4 40
2018-09-16 12:00:00 27.3 4 Sudeste 19 Este 0 996.4 0.1 48
2018-09-16 11:00:00 24.9 9 Sudeste 22 Este 0 996.9 1 55
2018-09-16 10:00:00 22.3 6 Este 13 Este 0 996.2 0.8 69
2018-09-16 09:00:00 18.9 3 Este 5 Este 0 996.3 1 88
2018-09-16 08:00:00 17.1 3 Este 7 Este 0 995.9 0.5 90
2018-09-16 07:00:00 16.5 0 Calma 3 Este 0 995.4 -0.3 90
2018-09-16 06:00:00 17 0 Calma 5 Este 0 995.3 -0.6 90
2018-09-16 05:00:00 17.6 0 Calma 3 Oeste 0 995.4 -0.5 90
2018-09-16 04:00:00 18.5 0 Calma 5 Este 0 995.7 0 90
2018-09-16 03:00:00 18.8 0 Calma 6 Oeste 0 995.9 0.1 92
2018-09-16 02:00:00 18.8 4 Oeste 6 Oeste 0 995.9 0.5 90
2018-09-16 01:00:00 19.9 4 Oeste 5 Oeste 0 995.7 0.8 85
2018-09-16 00:00:00 20.4 0 Calma 6 Oeste 0 995.8 1.8 84
2018-09-15 23:00:00 20.8 4 Oeste 8 Oeste 0 995.4 2 81
2018-09-15 22:00:00 22.2 5 Oeste 13 Oeste 0 994.9 2 74
2018-09-15 21:00:00 23.4 8 Oeste 12 Oeste 0 994 1.7 67
2018-09-15 20:00:00 24.5 8 Oeste 18 Oeste 0 993.4 1.2 57
2018-09-15 19:00:00 25.5 10 Sudoeste 22 Sudoeste 0 992.9 0.9 52
2018-09-15 18:00:00 27.8 6 Este 13 Este 0 992.3 -0.3 44
2018-09-15 17:00:00 26.7 7 Este 30 Este 0 992.2 -1.1 48
2018-09-15 16:00:00 29.4 14 Este 25 Sudeste 0 992 -2 34
2018-09-15 15:00:00 30.2 10 Este 24 Este 0 992.6 -1.6 34
2018-09-15 14:00:00 29.8 10 Este 22 Este 0 993.3 -0.8 37
2018-09-15 13:00:00 28.3 5 Este 15 Este 0 994 0.2 44
2018-09-15 12:00:00 25.6 8 Este 16 Sudeste 0 994.2 0.4 49
2018-09-15 11:00:00 23.7 6 Sudeste 18 Este 0 994.1 0.7 57
2018-09-15 10:00:00 22.4 6 Este 12 Sudeste 0 993.8 0.6 64
2018-09-15 09:00:00 18.4 0 Calma 3 Este 0 993.8 0.9 87
2018-09-15 08:00:00 16.4 0 Calma 5 Este 0 993.4 0.5 90
2018-09-15 07:00:00 17.1 0 Calma 5 Sudeste 0 993.2 0.2 90
2018-09-15 06:00:00 17.4 0 Calma 5 Este 0 992.9 -0.6 90
2018-09-15 05:00:00 18.2 0 Calma 3 Sur 0 992.9 -0.7 87
2018-09-15 04:00:00 19 2 Oeste 11 Oeste 0 993 -0.8 86
2018-09-15 03:00:00 19.1 3 Oeste 6 Oeste 0 993.5 0 82
2018-09-15 02:00:00 19 6 Oeste 12 Sudoeste 0 993.6 0.3 81
2018-09-15 01:00:00 21.3 7 Sudoeste 14 Sudoeste 0 993.8 1.3 70
2018-09-15 00:00:00 21 4 Oeste 6 Oeste 0 993.5 1.7 76
2018-09-14 23:00:00 21.8 0 Calma 6 Norte 0 993.3 1.5 73
2018-09-14 22:00:00 22.2 0 Calma 13 Sudoeste 0 992.5 0.5 69
2018-09-14 21:00:00 22.9 0 Calma 14 Sudoeste 0 991.8 0.2 66
2018-09-14 20:00:00 23 7 Sudoeste 24 Nordeste 0 991.8 0.6 65
2018-09-14 19:00:00 25.7 4 Nordeste 21 Sudoeste 0.1 992 0.8 62
2018-09-14 18:00:00 27.8 11 Oeste 23 Sudoeste 0 991.6 -0.4 46
2018-09-14 17:00:00 28.8 10 Sudoeste 24 Sudoeste 0 991.2 -1.6 45
2018-09-14 16:00:00 28.9 12 Oeste 21 Sudoeste 0 991.2 -2.4 44
2018-09-14 15:00:00 29.4 8 Oeste 17 Noroeste 0 992 -2 42
2018-09-14 14:00:00 31.2 4 Noroeste 12 Noroeste 0 992.8 -0.9 42
2018-09-14 13:00:00 30.4 3 Sudeste 12 Este 0 993.6 -0.2 42
2018-09-14 12:00:00 27.4 4 Sudoeste 7 Sur 0 994 -- 51
2018-09-14 11:00:00 25.7 4 Sudoeste 9 Sudoeste 0 993.7 -- 61
2018-09-14 10:00:00 23.6 3 Noroeste -- -- -- 993.8 -- 72
2018-09-14 09:00:00 -- -- -- -- -- -- -- -- --
2018-09-14 08:00:00 -- -- -- -- -- -- -- -- --
2018-09-14 07:00:00 -- -- -- -- -- -- -- -- --
2018-09-14 06:00:00 -- -- -- -- -- -- -- -- --
2018-09-14 05:00:00 -- -- -- -- -- -- -- -- --
2018-09-14 04:00:00 -- -- -- -- -- -- -- -- --
2018-09-14 03:00:00 -- -- -- -- -- -- -- -- --
2018-09-14 02:00:00 -- -- -- -- -- -- -- -- --
2018-09-14 01:00:00 -- -- -- -- -- -- -- -- --
2018-09-14 00:00:00 -- -- -- -- -- -- -- -- --
2018-09-13 23:00:00 -- -- -- -- -- -- -- -- --
2018-09-13 22:00:00 -- -- -- -- -- -- -- -- --
2018-09-13 21:00:00 -- -- -- -- -- -- -- -- --
2018-09-13 20:00:00 -- -- -- -- -- -- -- -- --
2018-09-13 19:00:00 -- -- -- -- -- -- -- -- --
2018-09-13 18:00:00 -- -- -- -- -- -- -- -- --
2018-09-13 17:00:00 -- -- -- -- -- -- -- -- --
2018-09-13 16:00:00 -- -- -- -- -- -- -- -- --
2018-09-13 15:00:00 -- -- -- -- -- -- -- -- --
2018-09-13 14:00:00 -- -- -- -- -- -- -- -- --
2018-09-13 13:00:00 -- -- -- -- -- -- -- -- --
2018-09-13 12:00:00 -- -- -- -- -- -- -- -- --
2018-09-13 11:00:00 -- -- -- -- -- -- -- -- --
2018-09-13 10:00:00 -- -- -- -- -- -- -- -- --
2018-09-13 09:00:00 -- -- -- -- -- -- -- -- --
2018-09-13 08:00:00 -- -- -- -- -- -- -- -- --
2018-09-13 07:00:00 -- -- -- -- -- -- -- -- --
2018-09-13 06:00:00 -- -- -- -- -- -- -- -- --
2018-09-13 05:00:00 -- -- -- -- -- -- -- -- --
2018-09-13 04:00:00 -- -- -- -- -- -- -- -- --
2018-09-13 03:00:00 -- -- -- -- -- -- -- -- --
2018-09-13 02:00:00 -- -- -- -- -- -- -- -- --
2018-09-13 01:00:00 -- -- -- -- -- -- -- -- --
2018-09-13 00:00:00 -- -- -- -- -- -- -- -- --
2018-09-12 23:00:00 -- -- -- -- -- -- -- -- --
2018-09-12 22:00:00 -- -- -- -- -- -- -- -- --
2018-09-12 21:00:00 -- -- -- -- -- -- -- -- --
2018-09-12 20:00:00 -- -- -- -- -- -- -- -- --
2018-09-12 19:00:00 -- -- -- -- -- -- -- -- --
2018-09-12 18:00:00 -- -- -- -- -- -- -- -- --
2018-09-12 17:00:00 -- -- -- -- -- -- -- -- --
2018-09-12 16:00:00 -- -- -- -- -- -- -- -- --
2018-09-12 15:00:00 -- -- -- -- -- -- -- -- --
2018-09-12 14:00:00 -- -- -- -- -- -- -- -- --
2018-09-12 13:00:00 -- -- -- -- -- -- -- -- --
2018-09-12 12:00:00 -- -- -- -- -- -- -- -- --
2018-09-12 11:00:00 -- -- -- -- -- -- -- -- --
2018-09-12 10:00:00 -- -- -- -- -- -- -- -- --
2018-09-12 09:00:00 -- -- -- -- -- -- -- -- --
2018-09-12 08:00:00 -- -- -- -- -- -- -- -- --
2018-09-12 07:00:00 -- -- -- -- -- -- -- -- --
2018-09-12 06:00:00 -- -- -- -- -- -- -- -- --
2018-09-12 05:00:00 -- -- -- -- -- -- -- -- --
2018-09-12 04:00:00 -- -- -- -- -- -- -- -- --
2018-09-12 03:00:00 -- -- -- -- -- -- -- -- --
2018-09-12 02:00:00 -- -- -- -- -- -- -- -- --
2018-09-12 01:00:00 -- -- -- -- -- -- -- -- --
2018-09-12 00:00:00 -- -- -- -- -- -- -- -- --
2018-09-11 23:00:00 -- -- -- -- -- -- -- -- --
2018-09-11 22:00:00 -- -- -- -- -- -- -- -- --
2018-09-11 21:00:00 -- -- -- -- -- -- -- -- --
2018-09-11 20:00:00 -- -- -- -- -- -- -- -- --
2018-09-11 19:00:00 -- -- -- -- -- -- -- -- --
2018-09-11 18:00:00 -- -- -- -- -- -- -- -- --
2018-09-11 17:00:00 -- -- -- -- -- -- -- -- --
2018-09-11 16:00:00 -- -- -- -- -- -- -- -- --
2018-09-11 15:00:00 -- -- -- -- -- -- -- -- --
2018-09-11 14:00:00 -- -- -- -- -- -- -- -- --
2018-09-11 13:00:00 -- -- -- -- -- -- -- -- --
2018-09-11 12:00:00 -- -- -- -- -- -- -- -- --
2018-09-11 11:00:00 -- -- -- -- -- -- -- -- --
2018-09-11 10:00:00 -- -- -- -- -- -- -- -- --
2018-09-11 09:00:00 -- -- -- -- -- -- -- -- --
2018-09-11 08:00:00 -- -- -- -- -- -- -- -- --
2018-09-11 07:00:00 -- -- -- -- -- -- -- -- --
2018-09-11 06:00:00 -- -- -- -- -- -- -- -- --
2018-09-11 05:00:00 -- -- -- -- -- -- -- -- --
2018-09-11 04:00:00 -- -- -- -- -- -- -- -- --
2018-09-11 03:00:00 -- -- -- -- -- -- -- -- --
2018-09-11 02:00:00 -- -- -- -- -- -- -- -- --
2018-09-11 01:00:00 -- -- -- -- -- -- -- -- --
2018-09-11 00:00:00 -- -- -- -- -- -- -- -- --
2018-09-10 23:00:00 -- -- -- -- -- -- -- -- --
2018-09-10 22:00:00 -- -- -- -- -- -- -- -- --
2018-09-10 21:00:00 -- -- -- -- -- -- -- -- --
2018-09-10 20:00:00 -- -- -- -- -- -- -- -- --
2018-09-10 19:00:00 -- -- -- -- -- -- -- -- --
2018-09-10 18:00:00 -- -- -- -- -- -- -- -- --
2018-09-10 17:00:00 -- -- -- -- -- -- -- -- --
2018-09-10 16:00:00 -- -- -- -- -- -- -- -- --
2018-09-10 15:00:00 -- -- -- -- -- -- -- -- --
2018-09-10 14:00:00 -- -- -- -- -- -- -- -- --
2018-09-10 13:00:00 -- -- -- -- -- -- -- -- --
2018-09-10 12:00:00 -- -- -- -- -- -- -- -- --
2018-09-10 11:00:00 -- -- -- -- -- -- -- -- --
2018-09-10 10:00:00 -- -- -- -- -- -- -- -- --
2018-09-10 09:00:00 -- -- -- -- -- -- -- -- --
2018-09-10 08:00:00 -- -- -- -- -- -- -- -- --
2018-09-10 07:00:00 -- -- -- -- -- -- -- -- --
2018-09-10 06:00:00 -- -- -- -- -- -- -- -- --
2018-09-10 05:00:00 -- -- -- -- -- -- -- -- --
2018-09-10 04:00:00 -- -- -- -- -- -- -- -- --
2018-09-10 03:00:00 -- -- -- -- -- -- -- -- --
2018-09-10 02:00:00 -- -- -- -- -- -- -- -- --
2018-09-10 01:00:00 -- -- -- -- -- -- -- -- --
2018-09-10 00:00:00 -- -- -- -- -- -- -- -- --
2018-09-09 23:00:00 -- -- -- -- -- -- -- -- --
2018-09-09 22:00:00 -- -- -- -- -- -- -- -- --
2018-09-09 21:00:00 -- -- -- -- -- -- -- -- --
2018-09-09 20:00:00 -- -- -- -- -- -- -- -- --
2018-09-09 19:00:00 -- -- -- -- -- -- -- -- --
2018-09-09 18:00:00 -- -- -- -- -- -- -- -- --
2018-09-09 17:00:00 -- -- -- -- -- -- -- -- --
2018-09-09 16:00:00 -- -- -- -- -- -- -- -- --
2018-09-09 15:00:00 -- -- -- -- -- -- -- -- --
2018-09-09 14:00:00 -- -- -- -- -- -- -- -- --
2018-09-09 13:00:00 -- -- -- -- -- -- -- -- --
2018-09-09 12:00:00 -- -- -- -- -- -- -- -- --
2018-09-09 11:00:00 -- -- -- -- -- -- -- -- --
2018-09-09 10:00:00 -- -- -- -- -- -- -- -- --
2018-09-09 09:00:00 -- -- -- -- -- -- -- -- --
2018-09-09 08:00:00 -- -- -- -- -- -- -- -- --
2018-09-09 07:00:00 -- -- -- -- -- -- -- -- --
2018-09-09 06:00:00 -- -- -- -- -- -- -- -- --
2018-09-09 05:00:00 -- -- -- -- -- -- -- -- --
2018-09-09 04:00:00 -- -- -- -- -- -- -- -- --
2018-09-09 03:00:00 -- -- -- -- -- -- -- -- --
2018-09-09 02:00:00 -- -- -- -- -- -- -- -- --
2018-09-09 01:00:00 -- -- -- -- -- -- -- -- --
2018-09-09 00:00:00 -- -- -- -- -- -- -- -- --
2018-09-08 23:00:00 -- -- -- -- -- -- -- -- --
2018-09-08 22:00:00 -- -- -- -- -- -- -- -- --
2018-09-08 21:00:00 -- -- -- -- -- -- -- -- --
2018-09-08 20:00:00 -- -- -- -- -- -- -- -- --
2018-09-08 19:00:00 -- -- -- -- -- -- -- -- --
2018-09-08 18:00:00 -- -- -- -- -- -- -- -- --
2018-09-08 17:00:00 -- -- -- -- -- -- -- -- --
2018-09-08 16:00:00 -- -- -- -- -- -- -- -- --
2018-09-08 15:00:00 -- -- -- -- -- -- -- -- --
2018-09-08 14:00:00 -- -- -- -- -- -- -- -- --
2018-09-08 13:00:00 -- -- -- -- -- -- -- -- --
2018-09-08 12:00:00 -- -- -- -- -- -- -- -- --
2018-09-08 11:00:00 -- -- -- -- -- -- -- -- --
2018-09-08 10:00:00 -- -- -- -- -- -- -- -- --
2018-09-08 09:00:00 -- -- -- -- -- -- -- -- --
2018-09-08 08:00:00 -- -- -- -- -- -- -- -- --
2018-09-08 07:00:00 -- -- -- -- -- -- -- -- --
2018-09-08 06:00:00 -- -- -- -- -- -- -- -- --
2018-09-08 05:00:00 -- -- -- -- -- -- -- -- --
2018-09-08 04:00:00 -- -- -- -- -- -- -- -- --
2018-09-08 03:00:00 -- -- -- -- -- -- -- -- --
2018-09-08 02:00:00 -- -- -- -- -- -- -- -- --
2018-09-08 01:00:00 -- -- -- -- -- -- -- -- --
2018-09-08 00:00:00 -- -- -- -- -- -- -- -- --
2018-09-07 23:00:00 -- -- -- -- -- -- -- -- --
2018-09-07 22:00:00 -- -- -- -- -- -- -- -- --
2018-09-07 21:00:00 -- -- -- -- -- -- -- -- --
2018-09-07 20:00:00 -- -- -- -- -- -- -- -- --
2018-09-07 19:00:00 -- -- -- -- -- -- -- -- --
2018-09-07 18:00:00 -- -- -- -- -- -- -- -- --
2018-09-07 17:00:00 -- -- -- -- -- -- -- -- --
2018-09-07 16:00:00 -- -- -- -- -- -- -- -- --
2018-09-07 15:00:00 -- -- -- -- -- -- -- -- --
2018-09-07 14:00:00 -- -- -- -- -- -- -- -- --
2018-09-07 13:00:00 -- -- -- -- -- -- -- -- --
2018-09-07 12:00:00 -- -- -- -- -- -- -- -- --
2018-09-07 11:00:00 -- -- -- -- -- -- -- -- --
2018-09-07 10:00:00 -- -- -- -- -- -- -- -- --
2018-09-07 09:00:00 -- -- -- -- -- -- -- -- --
2018-09-07 08:00:00 -- -- -- -- -- -- -- -- --
2018-09-07 07:00:00 -- -- -- -- -- -- -- -- --
2018-09-07 06:00:00 -- -- -- -- -- -- -- -- --
2018-09-07 05:00:00 -- -- -- -- -- -- -- -- --
2018-09-07 04:00:00 -- -- -- -- -- -- -- -- --
2018-09-07 03:00:00 -- -- -- -- -- -- -- -- --
2018-09-07 02:00:00 -- -- -- -- -- -- -- -- --
2018-09-07 01:00:00 -- -- -- -- -- -- -- -- --
2018-09-07 00:00:00 -- -- -- -- -- -- -- -- --
2018-09-06 23:00:00 -- -- -- -- -- -- -- -- --
2018-09-06 22:00:00 -- -- -- -- -- -- -- -- --
2018-09-06 21:00:00 -- -- -- -- -- -- -- -- --
2018-09-06 20:00:00 -- -- -- -- -- -- -- -- --
2018-09-06 19:00:00 -- -- -- -- -- -- -- -- --
2018-09-06 18:00:00 -- -- -- -- -- -- -- -- --
2018-09-06 17:00:00 -- -- -- -- -- -- -- -- --
2018-09-06 16:00:00 -- -- -- -- -- -- -- -- --
2018-09-06 15:00:00 -- -- -- -- -- -- -- -- --
2018-09-06 14:00:00 -- -- -- -- -- -- -- -- --
2018-09-06 13:00:00 -- -- -- -- -- -- -- -- --
2018-09-06 12:00:00 -- -- -- -- -- -- -- -- --
2018-09-06 11:00:00 -- -- -- -- -- -- -- -- --
2018-09-06 10:00:00 -- -- -- -- -- -- -- -- --
2018-09-06 09:00:00 -- -- -- -- -- -- -- -- --
2018-09-06 08:00:00 -- -- -- -- -- -- -- -- --
2018-09-06 07:00:00 -- -- -- -- -- -- -- -- --
2018-09-06 06:00:00 -- -- -- -- -- -- -- -- --
2018-09-06 05:00:00 -- -- -- -- -- -- -- -- --
2018-09-06 04:00:00 -- -- -- -- -- -- -- -- --
2018-09-06 03:00:00 -- -- -- -- -- -- -- -- --
2018-09-06 02:00:00 -- -- -- -- -- -- -- -- --
2018-09-06 01:00:00 -- -- -- -- -- -- -- -- --
2018-09-06 00:00:00 -- -- -- -- -- -- -- -- --
2018-09-05 23:00:00 -- -- -- -- -- -- -- -- --
2018-09-05 22:00:00 -- -- -- -- -- -- -- -- --
2018-09-05 21:00:00 -- -- -- -- -- -- -- -- --
2018-09-05 20:00:00 -- -- -- -- -- -- -- -- --
2018-09-05 19:00:00 -- -- -- -- -- -- -- -- --
2018-09-05 18:00:00 -- -- -- -- -- -- -- -- --
2018-09-05 17:00:00 -- -- -- -- -- -- -- -- --
2018-09-05 16:00:00 -- -- -- -- -- -- -- -- --
2018-09-05 15:00:00 -- -- -- -- -- -- -- -- --
2018-09-05 14:00:00 -- -- -- -- -- -- -- -- --
2018-09-05 13:00:00 -- -- -- -- -- -- -- -- --
2018-09-05 12:00:00 -- -- -- -- -- -- -- -- --
2018-09-05 11:00:00 -- -- -- -- -- -- -- -- --
2018-09-05 10:00:00 -- -- -- -- -- -- -- -- --
2018-09-05 09:00:00 -- -- -- -- -- -- -- -- --
2018-09-05 08:00:00 -- -- -- -- -- -- -- -- --
2018-09-05 07:00:00 -- -- -- -- -- -- -- -- --
2018-09-05 06:00:00 -- -- -- -- -- -- -- -- --
2018-09-05 05:00:00 -- -- -- -- -- -- -- -- --
2018-09-05 04:00:00 -- -- -- -- -- -- -- -- --
2018-09-05 03:00:00 -- -- -- -- -- -- -- -- --
2018-09-05 02:00:00 -- -- -- -- -- -- -- -- --
2018-09-05 01:00:00 -- -- -- -- -- -- -- -- --
2018-09-05 00:00:00 -- -- -- -- -- -- -- -- --
2018-09-04 23:00:00 -- -- -- -- -- -- -- -- --
2018-09-04 22:00:00 -- -- -- -- -- -- -- -- --
2018-09-04 21:00:00 -- -- -- -- -- -- -- -- --
2018-09-04 20:00:00 -- -- -- -- -- -- -- -- --
2018-09-04 19:00:00 -- -- -- -- -- -- -- -- --
2018-09-04 18:00:00 -- -- -- -- -- -- -- -- --
2018-09-04 17:00:00 -- -- -- -- -- -- -- -- --
2018-09-04 16:00:00 -- -- -- -- -- -- -- -- --
2018-09-04 15:00:00 -- -- -- -- -- -- -- -- --
2018-09-04 14:00:00 -- -- -- -- -- -- -- -- --
2018-09-04 13:00:00 -- -- -- -- -- -- -- -- --
2018-09-04 12:00:00 -- -- -- -- -- -- -- -- --
2018-09-04 11:00:00 -- -- -- -- -- -- -- -- --
2018-09-04 10:00:00 -- -- -- -- -- -- -- -- --
2018-09-04 09:00:00 -- -- -- -- -- -- -- -- --
2018-09-04 08:00:00 -- -- -- -- -- -- -- -- --
2018-09-04 07:00:00 -- -- -- -- -- -- -- -- --
2018-09-04 06:00:00 -- -- -- -- -- -- -- -- --
2018-09-04 05:00:00 -- -- -- -- -- -- -- -- --
2018-09-04 04:00:00 -- -- -- -- -- -- -- -- --
2018-09-04 03:00:00 -- -- -- -- -- -- -- -- --
2018-09-04 02:00:00 -- -- -- -- -- -- -- -- --
2018-09-04 01:00:00 -- -- -- -- -- -- -- -- --
2018-09-04 00:00:00 -- -- -- -- -- -- -- -- --
2018-09-03 23:00:00 -- -- -- -- -- -- -- -- --
2018-09-03 22:00:00 -- -- -- -- -- -- -- -- --
2018-09-03 21:00:00 -- -- -- -- -- -- -- -- --
2018-09-03 20:00:00 -- -- -- -- -- -- -- -- --
2018-09-03 19:00:00 -- -- -- -- -- -- -- -- --
2018-09-03 18:00:00 -- -- -- -- -- -- -- -- --
2018-09-03 17:00:00 -- -- -- -- -- -- -- -- --
2018-09-03 16:00:00 -- -- -- -- -- -- -- -- --
2018-09-03 15:00:00 -- -- -- -- -- -- -- -- --
2018-09-03 14:00:00 -- -- -- -- -- -- -- -- --
2018-09-03 13:00:00 -- -- -- -- -- -- -- -- --
2018-09-03 12:00:00 -- -- -- -- -- -- -- -- --
2018-09-03 11:00:00 -- -- -- -- -- -- -- -- --
2018-09-03 10:00:00 -- -- -- -- -- -- -- -- --
2018-09-03 09:00:00 -- -- -- -- -- -- -- -- --
2018-09-03 08:00:00 -- -- -- -- -- -- -- -- --
2018-09-03 07:00:00 -- -- -- -- -- -- -- -- --
2018-09-03 06:00:00 -- -- -- -- -- -- -- -- --
2018-09-03 05:00:00 -- -- -- -- -- -- -- -- --
2018-09-03 04:00:00 -- -- -- -- -- -- -- -- --
2018-09-03 03:00:00 -- -- -- -- -- -- -- -- --
2018-09-03 02:00:00 -- -- -- -- -- -- -- -- --
2018-09-03 01:00:00 -- -- -- -- -- -- -- -- --
2018-09-03 00:00:00 -- -- -- -- -- -- -- -- --
2018-09-02 23:00:00 -- -- -- -- -- -- -- -- --
2018-09-02 22:00:00 -- -- -- -- -- -- -- -- --
2018-09-02 21:00:00 -- -- -- -- -- -- -- -- --
2018-09-02 20:00:00 -- -- -- -- -- -- -- -- --
2018-09-02 19:00:00 -- -- -- -- -- -- -- -- --
2018-09-02 18:00:00 -- -- -- -- -- -- -- -- --
2018-09-02 17:00:00 -- -- -- -- -- -- -- -- --
2018-09-02 16:00:00 -- -- -- -- -- -- -- -- --
2018-09-02 15:00:00 -- -- -- -- -- -- -- -- --
2018-09-02 14:00:00 -- -- -- -- -- -- -- -- --
2018-09-02 13:00:00 -- -- -- -- -- -- -- -- --
2018-09-02 12:00:00 -- -- -- -- -- -- -- -- --
2018-09-02 11:00:00 -- -- -- -- -- -- -- -- --
2018-09-02 10:00:00 -- -- -- -- -- -- -- -- --
2018-09-02 09:00:00 -- -- -- -- -- -- -- -- --
2018-09-02 08:00:00 -- -- -- -- -- -- -- -- --
2018-09-02 07:00:00 -- -- -- -- -- -- -- -- --
2018-09-02 06:00:00 -- -- -- -- -- -- -- -- --
2018-09-02 05:00:00 -- -- -- -- -- -- -- -- --
2018-09-02 04:00:00 -- -- -- -- -- -- -- -- --
2018-09-02 03:00:00 -- -- -- -- -- -- -- -- --
2018-09-02 02:00:00 -- -- -- -- -- -- -- -- --
2018-09-02 01:00:00 -- -- -- -- -- -- -- -- --
2018-09-02 00:00:00 -- -- -- -- -- -- -- -- --
2018-09-01 23:00:00 -- -- -- -- -- -- -- -- --
2018-09-01 22:00:00 -- -- -- -- -- -- -- -- --
2018-09-01 21:00:00 -- -- -- -- -- -- -- -- --
2018-09-01 20:00:00 -- -- -- -- -- -- -- -- --
2018-09-01 19:00:00 -- -- -- -- -- -- -- -- --
2018-09-01 18:00:00 -- -- -- -- -- -- -- -- --
2018-09-01 17:00:00 -- 7 Este -- -- -- -- -- --
2018-09-01 16:00:00 40.4 3 Nordeste -- -- -- 989.1 -- 46
2018-09-01 15:00:00 -- -- -- -- -- -- -- -- --
2018-09-01 14:00:00 -- -- -- -- -- -- -- -- --
2018-09-01 13:00:00 -- -- -- -- -- -- -- -- --
2018-09-01 12:00:00 -- -- -- -- -- -- -- -- --
2018-09-01 11:00:00 29.5 5 Sudeste -- -- -- 992.1 -- 74
2018-09-01 10:00:00 -- -- -- -- -- -- -- -- --
2018-09-01 09:00:00 -- -- -- -- -- -- -- -- --
2018-09-01 08:00:00 -- -- -- -- -- -- -- -- --
2018-09-01 07:00:00 -- -- -- -- -- -- -- -- --
2018-09-01 06:00:00 -- -- -- -- -- -- -- -- --
2018-09-01 05:00:00 -- -- -- -- -- -- -- -- --
2018-09-01 04:00:00 -- -- -- -- -- -- -- -- --
2018-09-01 03:00:00 -- -- -- -- -- -- -- -- --
2018-09-01 02:00:00 -- -- -- -- -- -- -- -- --
2018-09-01 01:00:00 -- -- -- -- -- -- -- -- --
2018-09-01 00:00:00 -- -- -- -- -- -- -- -- --
2018-08-31 23:00:00 -- -- -- -- -- -- -- -- --
2018-08-31 22:00:00 -- -- -- -- -- -- -- -- --
2018-08-31 21:00:00 -- -- -- -- -- -- -- -- --
2018-08-31 20:00:00 -- -- -- -- -- -- -- -- --
2018-08-31 19:00:00 -- -- -- -- -- -- -- -- --
2018-08-31 18:00:00 -- -- -- -- -- -- -- -- --
2018-08-31 17:00:00 -- -- -- -- -- -- -- -- --
2018-08-31 16:00:00 -- -- -- -- -- -- -- -- --
2018-08-31 15:00:00 -- -- -- -- -- -- -- -- --
2018-08-31 14:00:00 -- -- -- -- -- -- -- -- --
2018-08-31 13:00:00 -- -- -- -- -- -- -- -- --
2018-08-31 12:00:00 -- -- -- -- -- -- -- -- --
2018-08-31 11:00:00 -- -- -- -- -- -- -- -- --
2018-08-31 10:00:00 -- -- -- -- -- -- -- -- --
2018-08-31 09:00:00 -- -- -- -- -- -- -- -- --
2018-08-31 08:00:00 -- -- -- -- -- -- -- -- --
2018-08-31 07:00:00 -- -- -- -- -- -- -- -- --
2018-08-31 06:00:00 -- -- -- -- -- -- -- -- --
2018-08-31 05:00:00 -- -- -- -- -- -- -- -- --
2018-08-31 04:00:00 -- -- -- -- -- -- -- -- --
2018-08-31 03:00:00 -- -- -- -- -- -- -- -- --
2018-08-31 02:00:00 23.1 0 Calma 5 Sudeste 0 991.9 1 78
2018-08-31 01:00:00 23.8 2 Sudeste 6 Sudeste 0 991.4 1 77
2018-08-31 00:00:00 24.7 0 Calma 4 Sudoeste 0 991.4 1.5 73
2018-08-30 23:00:00 26.3 0 Calma 4 Norte 0 990.9 1.1 68
2018-08-30 22:00:00 28.3 0 Calma 15 Sudoeste 0 990.4 0.7 63
2018-08-30 21:00:00 29.4 9 Oeste 12 Oeste 0 989.9 -0.3 62
2018-08-30 20:00:00 32.4 9 Oeste 15 Oeste 0 989.8 -0.6 59
2018-08-30 19:00:00 33.6 7 Oeste 17 Oeste 0 989.7 -1.3 57
2018-08-30 18:00:00 34.4 10 Oeste 19 Sudoeste 0 990.2 -1.4 56
2018-08-30 17:00:00 35.6 8 Oeste 18 Noroeste 0 990.4 -1.8 54
2018-08-30 16:00:00 34.9 7 Noroeste 18 Oeste 0 991 -1.7 56
2018-08-30 15:00:00 35 3 Noroeste 16 Noroeste 0 991.6 -1.8 58
2018-08-30 14:00:00 33.1 4 Noroeste 14 Oeste 0 992.2 -1.6 63
2018-08-30 13:00:00 31.3 2 Nordeste 13 Este 0 992.7 -0.8 66
2018-08-30 12:00:00 29.7 4 Sudeste 10 Sudeste 0 993.4 -0.1 69
2018-08-30 11:00:00 27 5 Este 12 Este 0 993.8 1.1 82
2018-08-30 10:00:00 24.2 3 Sudeste 8 Este 0 993.5 1.4 90
2018-08-30 09:00:00 20.6 2 Este 5 Este 0 993.5 1.3 99
2018-08-30 08:00:00 18.4 0 Calma 5 Sudoeste 0 992.7 0.5 99
2018-08-30 07:00:00 18.6 4 Oeste 8 Sudoeste 0 992.1 0 99
2018-08-30 06:00:00 19.4 2 Sudoeste 7 Oeste 0 992.2 -0.1 99
2018-08-30 05:00:00 19.3 3 Noroeste 13 Oeste 0 992.2 0.2 99
2018-08-30 04:00:00 20 4 Oeste 11 Oeste 0 992.1 0.6 96
2018-08-30 03:00:00 21.2 3 Oeste 6 Oeste 0 992.3 1 83
2018-08-30 02:00:00 22.8 4 Sudoeste 9 Noroeste 0 992 0.9 74
2018-08-30 01:00:00 25 6 Oeste 15 Oeste 0 991.5 0.9 68
2018-08-30 00:00:00 25.4 5 Noroeste 15 Sudoeste 0 991.3 1.5 68
2018-08-29 23:00:00 27.7 10 Sudoeste 15 Sudoeste 0 991.1 1.7 64
2018-08-29 22:00:00 29 12 Oeste 18 Oeste 0 990.6 1.5 61
2018-08-29 21:00:00 28.7 9 Oeste 14 Oeste 0 989.8 0.6 60
2018-08-29 20:00:00 31.8 9 Sudoeste 16 Oeste 0 989.4 -0.4 55
2018-08-29 19:00:00 33.9 6 Oeste 18 Oeste 0 989.1 -1.2 50
2018-08-29 18:00:00 34.3 6 Oeste 18 Sudoeste 0 989.2 -1.6 51
2018-08-29 17:00:00 35.3 4 Norte 23 Noroeste 0 989.8 -1.7 49
2018-08-29 16:00:00 36.1 4 Este 18 Sudoeste 0 990.3 -1.8 49
2018-08-29 15:00:00 34.8 7 Oeste 18 Oeste 0 990.8 -1.7 58
2018-08-29 14:00:00 32.9 4 Sudoeste 16 Sudoeste 0 991.5 -1.2 57
2018-08-29 13:00:00 31.3 4 Sudoeste 14 Sudoeste 0 992.1 -0.6 65
2018-08-29 12:00:00 28.2 6 Noroeste 14 Noroeste 0 992.5 -0.1 77
2018-08-29 11:00:00 25.4 5 Noroeste 13 Noroeste 0 992.7 0.4 89
2018-08-29 10:00:00 24 7 Noroeste 14 Oeste 0 992.7 0.9 96
2018-08-29 09:00:00 21.2 2 Noroeste 4 Oeste 0 992.6 0.6 99
2018-08-29 08:00:00 19 0 Calma 3 Oeste 0 992.3 0.3 99
2018-08-29 07:00:00 19.4 2 Oeste 6 Oeste 0 991.8 0 99
2018-08-29 06:00:00 20.1 2 Oeste 6 Oeste 0 992 0.3 95
2018-08-29 05:00:00 21.5 0 Calma 7 Oeste 0 992 0.5 94
2018-08-29 04:00:00 23.3 4 Oeste 17 Oeste 0 991.8 1 88
2018-08-29 03:00:00 24.2 9 Oeste 20 Oeste 0 991.7 1.5 88
2018-08-29 02:00:00 26.1 11 Oeste 29 Sudoeste 0 991.5 1.7 82
2018-08-29 01:00:00 27.3 11 Oeste 27 Sudoeste 0 990.8 1.8 76
2018-08-29 00:00:00 28.8 14 Sudoeste 24 Oeste 0 990.2 2 66
2018-08-28 23:00:00 29.6 9 Oeste 21 Sudoeste 0 989.8 2.3 60
2018-08-28 22:00:00 31 11 Oeste 23 Oeste 0 989 1.4 61
2018-08-28 21:00:00 31.8 12 Oeste 27 Oeste 0 988.2 0.3 60
2018-08-28 20:00:00 33.6 16 Oeste 27 Oeste 0 987.5 -1.1 58
2018-08-28 19:00:00 34.7 13 Oeste 26 Oeste 0 987.6 -1.6 57
2018-08-28 18:00:00 36.4 13 Sudoeste 27 Oeste 0 987.9 -2.2 53
2018-08-28 17:00:00 36.7 14 Oeste 31 Oeste 0 988.6 -2.2 54
2018-08-28 16:00:00 35.9 7 Noroeste 16 Noroeste 0 989.2 -2.6 55
2018-08-28 15:00:00 36.6 3 Nordeste 11 Este 0 990.1 -2.2 52
2018-08-28 14:00:00 35 3 Sudeste 9 Este 0 990.8 -1.6 57
2018-08-28 13:00:00 33 4 Noroeste 12 Noroeste 0 991.8 -0.2 70
2018-08-28 12:00:00 31 3 Oeste 12 Sudoeste 0 992.3 0.4 75
2018-08-28 11:00:00 28.5 3 Sudoeste 12 Oeste 0 992.4 1.5 87
2018-08-28 10:00:00 25.5 7 Oeste 17 Noroeste 0 992 2.1 98
2018-08-28 09:00:00 20.8 5 Noroeste 10 Noroeste 0 991.9 2.3 99
2018-08-28 08:00:00 22.5 2 Noroeste 11 Sudoeste 0 990.9 0.9 95
2018-08-28 07:00:00 23.5 0 Calma 14 Sudoeste 0 989.9 -0.4 90
2018-08-28 06:00:00 24.5 6 Oeste 18 Oeste 0 989.6 -0.6 85
2018-08-28 05:00:00 25 8 Oeste 19 Oeste 0 990 0 81
2018-08-28 04:00:00 25.7 11 Oeste 21 Oeste 0 990.3 0.5 79
2018-08-28 03:00:00 27.1 14 Oeste 29 Oeste 0 990.2 0.7 73
2018-08-28 02:00:00 27.9 17 Oeste 27 Oeste 0 990 2.2 66
2018-08-28 01:00:00 28.8 14 Oeste 24 Oeste 0 989.8 2.9 62
2018-08-28 00:00:00 26.7 9 Oeste 23 Oeste 0 989.5 3.4 60
2018-08-27 23:00:00 28.3 0 Calma 10 Sudeste 0 987.8 -0.3 53
2018-08-27 22:00:00 30.9 5 Sudeste 11 Sudeste 0 986.9 -0.3 51
2018-08-27 21:00:00 32.9 8 Este 17 Este 0 986.1 -0.7 48
2018-08-27 20:00:00 35.5 12 Oeste 26 Oeste 0 988.1 1.3 45
2018-08-27 19:00:00 36.1 0 Calma 11 Oeste 0 987.2 -0.6 51
2018-08-27 18:00:00 35.5 9 Noroeste 16 Noroeste 0 986.8 -1.9 47
2018-08-27 17:00:00 40.9 5 Noroeste 17 Noroeste 0 986.8 -2 39
2018-08-27 16:00:00 40.1 3 Oeste 20 Noroeste 0 987.8 -1.3 42
2018-08-27 15:00:00 38 11 Noroeste 21 Noroeste 0 988.7 -0.6 49
2018-08-27 14:00:00 38.5 4 Oeste 9 Oeste 0 988.8 -0.6 47
2018-08-27 13:00:00 36.8 4 Sudeste 15 Este 0 989.1 0 53
2018-08-27 12:00:00 33.1 5 Sudeste 16 Este 0 989.3 0.4 60
2018-08-27 11:00:00 30.5 5 Sudeste 10 Este 0 989.4 0.8 62
2018-08-27 10:00:00 25.6 0 Calma 3 Este 0 989.1 0.9 76
2018-08-27 09:00:00 19.5 0 Calma 2 Oeste 0 988.9 0.6 96
2018-08-27 08:00:00 17.4 0 Calma 4 Noroeste 0 988.6 0.2 91
2018-08-27 07:00:00 16.6 2 Noroeste 4 Noroeste 0 988.2 -0.5 92
2018-08-27 06:00:00 18 0 Calma 2 Oeste 0 988.3 -0.4 86
2018-08-27 05:00:00 18.3 0 Calma 2 Sudeste 0 988.4 -0.4 84
2018-08-27 04:00:00 19.5 0 Calma 3 Sudeste 0 988.7 0.1 78
2018-08-27 03:00:00 20.9 0 Calma 4 Este 0 988.7 0.2 76
2018-08-27 02:00:00 21.6 3 Sudeste 5 Este 0 988.8 0.6 71
2018-08-27 01:00:00 23.5 0 Calma 4 Sur 0 988.6 1.1 67
2018-08-27 00:00:00 24.5 0 Calma 5 Sudoeste 0 988.5 1.5 66
2018-08-26 23:00:00 26.1 0 Calma 7 Noroeste 0 988.2 1.4 62
2018-08-26 22:00:00 30.7 8 Sudoeste 13 Sudoeste 0 987.5 0.7 50
2018-08-26 21:00:00 30.9 4 Oeste 9 Noroeste 0 987 0.2 51
2018-08-26 20:00:00 34 9 Oeste 16 Oeste 0 986.8 -0.3 48
2018-08-26 19:00:00 36.4 10 Oeste 19 Oeste 0 986.8 -0.9 46
2018-08-26 18:00:00 36.8 10 Noroeste 22 Oeste 0 986.8 -1.5 46
2018-08-26 17:00:00 39.5 8 Oeste 26 Noroeste 0 987.1 -1.9 45
2018-08-26 16:00:00 37.2 9 Oeste 24 Noroeste 0 987.7 -1.8 45
2018-08-26 15:00:00 38.5 0 Calma 10 Oeste 0 988.3 -1.6 44
2018-08-26 14:00:00 36.1 3 Noroeste 10 Este 0 989 -1 52
2018-08-26 13:00:00 34.2 2 Este 10 Sudeste 0 989.5 -0.3 52
2018-08-26 12:00:00 31.1 5 Este 13 Sudeste 0 989.9 0.4 60
2018-08-26 11:00:00 28.4 8 Este 17 Este 0 990 0.9 67
2018-08-26 10:00:00 25.5 3 Este 9 Este 0 989.8 1.2 76
2018-08-26 09:00:00 19.6 0 Calma 5 Sudeste 0 989.5 1.2 94
2018-08-26 08:00:00 17.3 0 Calma 5 Sudeste 0 989.1 0.8 92
2018-08-26 07:00:00 18.4 3 Este 6 Este 0 988.6 0.4 88
2018-08-26 06:00:00 18.7 0 Calma 4 Este 0 988.3 0.1 87
2018-08-26 05:00:00 19.9 0 Calma 4 Sudoeste 0 988.3 0.1 83
2018-08-26 04:00:00 20.3 2 Noroeste 4 Noroeste 0 988.2 0.1 82
2018-08-26 03:00:00 21.7 2 Noroeste 7 Oeste 0 988.2 0.6 80
2018-08-26 02:00:00 21 5 Oeste 8 Oeste 0 988.2 1 78
2018-08-26 01:00:00 25.3 0 Calma 5 Sudoeste 0 988.1 1.6 62
2018-08-26 00:00:00 27.6 3 Noroeste 22 Sudoeste 0 987.6 1.7 56
2018-08-25 23:00:00 30.7 13 Sudoeste 21 Sudoeste 0 987.2 1.6 54
2018-08-25 22:00:00 29.1 5 Noroeste 14 Oeste 0 986.5 0.9 52
2018-08-25 21:00:00 31.1 9 Oeste 15 Oeste 0 985.9 0 50
2018-08-25 20:00:00 33.5 9 Oeste 21 Sudoeste 0 985.6 -0.8 50
2018-08-25 19:00:00 35.7 10 Oeste 23 Oeste 0 985.6 -1.6 47
2018-08-25 18:00:00 37.2 12 Oeste 23 Oeste 0 985.9 -2 48
2018-08-25 17:00:00 38 10 Oeste 25 Noroeste 0 986.4 -2.3 48
2018-08-25 16:00:00 37.2 11 Oeste 23 Oeste 0 987.2 -2.5 52
2018-08-25 15:00:00 36.2 8 Noroeste 21 Oeste 0 987.9 -2.3 54
2018-08-25 14:00:00 34.4 7 Noroeste 12 Noroeste 0 988.7 -1.8 56
2018-08-25 13:00:00 33.5 4 Oeste 14 Noroeste 0 989.7 -0.6 57
2018-08-25 12:00:00 31.6 2 Oeste 8 Oeste 0 990.2 0 60
2018-08-25 11:00:00 29.5 3 Sudeste 9 Sudeste 0 990.5 0.7 69
2018-08-25 10:00:00 25 3 Este 6 Este 0 990.3 0.6 78
2018-08-25 09:00:00 20.8 3 Sudeste 5 Este 0 990.2 0.7 89
2018-08-25 08:00:00 18.6 3 Sudeste 5 Sudeste 0 989.8 0.2 91
2018-08-25 07:00:00 19.6 0 Calma 2 Sudeste 0 989.7 -0.2 87
2018-08-25 06:00:00 21.1 0 Calma 4 Sudoeste 0 989.5 -0.3 83
2018-08-25 05:00:00 21.4 0 Calma 6 Oeste 0 989.6 -0.4 84
2018-08-25 04:00:00 21.4 2 Noroeste 4 Oeste 0 989.9 -0.1 82
2018-08-25 03:00:00 23 0 Calma 4 Sudeste 0 989.8 0.1 75
2018-08-25 02:00:00 23.7 0 Calma 8 Oeste 0 990 0.4 76
2018-08-25 01:00:00 25.3 4 Noroeste 6 Oeste 0 990 0.9 70
2018-08-25 00:00:00 26.4 3 Oeste 9 Noroeste 0 989.7 1.1 67